Flight Track Log - Related Links

Times and Time Zones

All times are in EDT time to prevent confusion due to time zone crossing. See the EJA951 flight status page for this flight to view local times or setup timezone preferences in your user account.

Time Position Orientation Groundspeed Altitude Reporting Facility
EDT Latitude Longitude Course Direction KTS MPH feet Rate Location/Type
Sun 03:35:01 PM 33.0203 -80.0783 296° West 268 308 6,900  Level Jacksonville Center
Sun 03:36:01 PM 33.0964 -80.1181 336° Northwest 279 321 8,900 1,550 Climbing Jacksonville Center
Sun 03:37:01 PM 33.1767 -80.1653 334° Northwest 300 345 10,000 1,400 Climbing Jacksonville Center
Sun 03:38:01 PM 33.2533 -80.2300 325° Northwest 318 366 11,700 1,950 Climbing Jacksonville Center
Sun 03:39:00 PM 33.5247 -80.5542 299° West  Level FlightAware Approximate
Sun 03:39:01 PM 33.3156 -80.3200 310° West 336 387 13,900  Level Jacksonville Center
Sun 03:40:00 PM 33.5886 -80.6964 296° West  Level FlightAware Approximate
Sun 03:40:01 PM 33.3819 -80.4050 313° West 347 399 16,200  Level Jacksonville Center
Sun 03:41:01 PM 33.4464 -80.4906 312° West 347 399 17,900 1,500 Climbing Jacksonville Center
Sun 03:42:01 PM 33.5147 -80.5808 312° West 357 411 19,200 1,500 Climbing Jacksonville Center
Sun 03:43:01 PM 33.5933 -80.6611 320° Northwest 363 418 20,900 1,700 Climbing Jacksonville Center
Sun 03:44:01 PM 33.6822 -80.7286 328° Northwest 369 425 22,600 1,800 Climbing Jacksonville Center
Sun 03:45:01 PM 33.7750 -80.7914 331° Northwest 380 437 24,500 1,750 Climbing Jacksonville Center
Sun 03:46:01 PM 33.8700 -80.8492 333° Northwest 380 437 26,100 1,250 Climbing Jacksonville Center
Sun 03:47:01 PM 33.9692 -80.9169 330° Northwest 394 453 27,000 600 Climbing Jacksonville Center
Sun 03:48:01 PM 34.0806 -80.9769 336° Northwest 409 471 27,300 700 Climbing Jacksonville Center
Sun 03:49:01 PM 34.1961 -81.0322 338° Northwest 433 498 28,400 1,300 Climbing Jacksonville Center
Sun 03:50:01 PM 34.3078 -81.1028 332° Northwest 445 512 29,900 1,314 Climbing Jacksonville Center
Sun 03:52:31 PM 34.6025 -81.2956 332° Northwest 468 539 33,000 1,171 Climbing Atlanta Center
Sun 03:53:31 PM 34.7192 -81.3728 331° Northwest 468 539 34,000 1,000 Climbing Atlanta Center
Sun 03:54:31 PM 34.8317 -81.4628 327° Northwest 473 544 35,000 1,150 Climbing Atlanta Center
Sun 03:55:31 PM 34.9278 -81.5789 315° West 480 552 36,300 1,300 Climbing Atlanta Center
Sun 03:56:31 PM 35.0175 -81.6828 317° Northwest 486 559 37,600 1,400 Climbing Atlanta Center
Sun 03:57:31 PM 35.1158 -81.7992 316° Northwest 492 566 39,100 1,600 Climbing Atlanta Center
Sun 03:58:31 PM 35.2117 -81.9136 316° Northwest 485 558 40,800 1,450 Climbing Atlanta Center
Sun 03:59:31 PM 35.3053 -82.0258 316° Northwest 474 545 42,000 850 Climbing Atlanta Center
Sun 04:00:31 PM 35.3989 -82.1381 316° Northwest 474 545 42,500 500 Climbing Atlanta Center
Sun 04:01:31 PM 35.5031 -82.2658 315° West 474 545 43,000 250 Climbing Atlanta Center
Sun 04:02:31 PM 35.6008 -82.3836 316° Northwest 474 545 43,000  Level Atlanta Center
Sun 04:03:31 PM 35.7025 -82.5044 316° Northwest 486 559 43,000  Level Atlanta Center
Sun 04:04:31 PM 35.7872 -82.6078 315° West 486 559 43,000  Level Atlanta Center
Sun 04:05:31 PM 35.8867 -82.7342 314° West 500 575 43,000  Level Atlanta Center
Sun 04:06:31 PM 35.9878 -82.8558 316° Northwest 506 582 43,000  Level Atlanta Center
Sun 04:07:31 PM 36.0869 -82.9800 315° West 506 582 43,000  Level Atlanta Center
Sun 04:08:31 PM 36.1944 -83.1150 315° West 500 575 43,000  Level Atlanta Center
Sun 04:10:58 PM 36.4397 -83.4172 315° West 509 586 43,000  Level Indianapolis Center
Sun 04:12:00 PM 36.5406 -83.5442 315° West 511 588 43,000  Level Indianapolis Center
Sun 04:13:02 PM 36.6414 -83.6706 315° West 512 589 43,000  Level Indianapolis Center
Sun 04:14:04 PM 36.7411 -83.7978 314° West 510 587 43,000  Level Indianapolis Center
Sun 04:15:06 PM 36.8406 -83.9239 315° West 507 583 43,000  Level Indianapolis Center
Sun 04:16:08 PM 36.9394 -84.0506 314° West 506 582 43,000  Level Indianapolis Center
Sun 04:17:10 PM 37.0386 -84.1789 314° West 507 583 43,000  Level Indianapolis Center
Sun 04:18:12 PM 37.1553 -84.3283 314° West 511 588 43,000  Level Indianapolis Center
Sun 04:19:14 PM 37.2542 -84.4569 314° West 511 588 43,000  Level Indianapolis Center
Sun 04:20:16 PM 37.3528 -84.5856 314° West 508 585 43,000  Level Indianapolis Center
Sun 04:21:18 PM 37.4511 -84.7133 314° West 507 583 43,000  Level Indianapolis Center
Sun 04:22:20 PM 37.5481 -84.8408 314° West 504 580 43,000  Level Indianapolis Center
Sun 04:23:22 PM 37.6619 -84.9928 313° West 507 583 43,000  Level Indianapolis Center
Sun 04:24:24 PM 37.7569 -85.1200 313° West 500 575 43,000  Level Indianapolis Center
Sun 04:25:26 PM 37.8522 -85.2450 314° West 503 579 43,000  Level Indianapolis Center
Sun 04:26:28 PM 37.9489 -85.3714 314° West 500 575 43,000  Level Indianapolis Center
Sun 04:27:30 PM 38.0444 -85.4992 314° West 500 575 43,000 48 Level Indianapolis Center
Sun 04:28:32 PM 38.1428 -85.6242 315° West 501 577 43,100 290 Climbing Indianapolis Center
Sun 04:29:34 PM 38.2444 -85.7447 317° Northwest 498 573 43,600 581 Climbing Indianapolis Center
Sun 04:30:36 PM 38.3678 -85.8883 318° Northwest 501 577 44,300 581 Climbing Indianapolis Center
Sun 04:31:38 PM 38.4706 -86.0108 317° Northwest 504 580 44,800 339 Climbing Indianapolis Center
Sun 04:32:40 PM 38.5717 -86.1303 317° Northwest 500 575 45,000 97 Climbing Indianapolis Center
Sun 04:33:42 PM 38.6733 -86.2528 317° Northwest 501 577 45,000  Level Indianapolis Center
Sun 04:34:44 PM 38.7753 -86.3767 317° Northwest 505 581 45,000  Level Indianapolis Center
Sun 04:35:46 PM 38.8775 -86.4989 317° Northwest 505 581 45,000  Level Indianapolis Center
Sun 04:36:48 PM 38.9981 -86.6456 317° Northwest 501 577 45,000  Level Indianapolis Center
Sun 04:37:50 PM 39.0981 -86.7667 317° Northwest 496 571 45,000  Level Indianapolis Center
Sun 04:38:52 PM 39.1983 -86.8914 316° Northwest 491 565 45,000  Level Indianapolis Center
Sun 04:39:54 PM 39.2981 -87.0128 317° Northwest 491 565 45,000  Level Indianapolis Center
Sun 04:40:56 PM 39.3956 -87.1344 316° Northwest 487 560 45,000  Level Indianapolis Center
Sun 04:41:58 PM 39.4953 -87.2539 317° Northwest 487 560 45,000  Level Indianapolis Center
Sun 04:43:36 PM 39.6756 -87.4047 327° Northwest 484 557 45,000  Level Chicago Center
Sun 04:44:38 PM 39.8103 -87.5181 327° Northwest 480 552 45,000  Level Chicago Center
Sun 04:45:40 PM 39.9222 -87.6117 327° Northwest 479 551 45,000  Level Chicago Center
Sun 04:46:43 PM 40.0358 -87.7056 328° Northwest 481 554 45,000  Level Chicago Center
Sun 04:47:45 PM 40.1475 -87.7989 327° Northwest 477 549 45,000  Level Chicago Center
Sun 04:48:47 PM 40.2711 -87.9092 326° Northwest 479 551 45,000  Level Chicago Center
Sun 04:49:49 PM 40.3811 -88.0072 326° Northwest 478 550 45,000  Level Chicago Center
Sun 04:50:51 PM 40.4906 -88.1069 325° Northwest 482 555 45,000  Level Chicago Center
Sun 04:51:53 PM 40.5997 -88.2047 326° Northwest 478 550 45,000  Level Chicago Center
Sun 04:52:55 PM 40.7089 -88.3042 325° Northwest 477 549 45,000  Level Chicago Center
Sun 04:53:57 PM 40.8400 -88.4228 326° Northwest 475 547 45,000  Level Chicago Center
Sun 04:54:59 PM 40.9497 -88.5222 326° Northwest 477 549 45,000  Level Chicago Center
Sun 04:56:01 PM 41.0581 -88.6225 325° Northwest 473 544 45,000  Level Chicago Center
Sun 04:57:03 PM 41.1622 -88.7339 321° Northwest 480 552 45,000  Level Chicago Center
Sun 04:58:05 PM 41.2603 -88.8597 316° Northwest 490 564 45,000  Level Chicago Center
Sun 04:59:07 PM 41.3558 -88.9850 315° West 485 558 45,000  Level Chicago Center
Sun 05:00:09 PM 41.4733 -89.1300 317° Northwest 485 558 45,000  Level Chicago Center
Sun 05:01:12 PM 41.5856 -89.2308 326° Northwest 487 560 45,000  Level Chicago Center
Sun 05:02:14 PM 41.6944 -89.3303 326° Northwest 477 549 45,000  Level Chicago Center
Sun 05:03:16 PM 41.8033 -89.4303 326° Northwest 476 548 45,000  Level Chicago Center
Sun 05:04:18 PM 41.9100 -89.5300 325° Northwest 470 541 45,000  Level Chicago Center
Sun 05:05:20 PM 42.0161 -89.6306 325° Northwest 468 539 45,000  Level Chicago Center
Sun 05:06:22 PM 42.1397 -89.7472 325° Northwest 481 554 45,000  Level Chicago Center
Sun 05:07:24 PM 42.2464 -89.8489 325° Northwest 471 542 45,000  Level Chicago Center
Sun 05:08:26 PM 42.3503 -89.9467 325° Northwest 470 541 45,000  Level Chicago Center
Sun 05:09:28 PM 42.4772 -90.0678 325° Northwest 471 542 45,000  Level Chicago Center
Sun 05:10:30 PM 42.5842 -90.1694 325° Northwest 475 547 45,000  Level Chicago Center
Sun 05:11:32 PM 42.6886 -90.2706 325° Northwest 470 541 45,000  Level Chicago Center
Sun 05:12:34 PM 42.7936 -90.3711 325° Northwest 466 536 45,000  Level Chicago Center
Sun 05:13:36 PM 42.9233 -90.4939 325° Northwest 481 554 45,000  Level Chicago Center
Sun 05:14:39 PM 43.0281 -90.5953 325° Northwest 471 542 45,000  Level Chicago Center
Sun 05:15:41 PM 43.1286 -90.6936 324° Northwest 454 522 45,000  Level Chicago Center
Sun 05:16:43 PM 43.2336 -90.7961 325° Northwest 465 535 45,000  Level Chicago Center
Sun 05:17:45 PM 43.3372 -90.8967 325° Northwest 464 534 45,000  Level Chicago Center
Sun 05:18:47 PM 43.4633 -91.0225 324° Northwest 471 542 45,000  Level Chicago Center
Sun 05:19:49 PM 43.5681 -91.1267 324° Northwest 471 542 45,000  Level Chicago Center
Sun 05:20:51 PM 43.6711 -91.2306 324° Northwest 466 536 45,000  Level Chicago Center
Sun 05:21:53 PM 43.7761 -91.3367 324° Northwest 472 543 45,000  Level Chicago Center
Sun 05:22:55 PM 43.9011 -91.4617 324° Northwest 469 540 45,000  Level Chicago Center
Sun 05:23:57 PM 44.0067 -91.5675 324° Northwest 471 542 45,000  Level Chicago Center
Sun 05:24:59 PM 44.1111 -91.6753 323° Northwest 472 543 45,000  Level Chicago Center
Sun 05:26:01 PM 44.2169 -91.7811 324° Northwest 474 545 45,000  Level Chicago Center
Sun 05:27:04 PM 44.3208 -91.8894 323° Northwest 473 544 45,000  Level Chicago Center
Sun 05:28:19 PM 44.4614 -92.0331 324° Northwest 471 542 45,000  Level Minneapolis Center
Sun 05:29:21 PM 44.5661 -92.1433 323° Northwest 471 542 45,000  Level Minneapolis Center
Sun 05:30:23 PM 44.6947 -92.2717 325° Northwest 473 544 45,000 -145 Level Minneapolis Center
Sun 05:31:25 PM 44.7989 -92.3825 323° Northwest 472 543 44,700 -1,147 Descending Minneapolis Center
Sun 05:32:39 PM 44.9061 -92.4981 323° Northwest 484 557 42,400 -2,453 Descending Minneapolis Center
Sun 05:33:42 PM 45.0372 -92.6356 323° Northwest 492 566 39,100 -3,120 Descending Minneapolis Center
Sun 05:34:44 PM 45.1494 -92.7567 323° Northwest 506 582 35,900 -2,952 Descending Minneapolis Center
Sun 05:35:46 PM 45.2906 -92.9075 323° Northwest 531 611 33,000 -2,613 Descending Minneapolis Center
Sun 05:36:48 PM 45.4072 -93.0317 323° Northwest 530 610 30,500 -2,516 Descending Minneapolis Center
Sun 05:37:50 PM 45.5211 -93.1556 323° Northwest 521 600 27,800 -2,613 Descending Minneapolis Center
Sun 05:38:52 PM 45.6344 -93.2786 323° Northwest 516 594 25,100 -2,565 Descending Minneapolis Center
Sun 05:39:54 PM 45.7414 -93.3967 322° Northwest 493 567 22,500 -3,000 Descending Minneapolis Center
Sun 05:40:56 PM 45.8631 -93.5292 323° Northwest 466 536 18,900 -3,176 Descending Minneapolis Center
Sun 05:42:10 PM 45.9794 -93.6594 322° Northwest 448 516 15,300 -3,221 Descending Minneapolis Center
Sun 05:43:12 PM 46.0794 -93.7358 332° Northwest 424 488 11,600 -2,371 Descending Minneapolis Center
Sun 05:44:14 PM 46.1822 -93.7692 347° North 388 447 10,400 -1,306 Descending Minneapolis Center
Sun 05:45:16 PM 46.2767 -93.7836 354° North 319 367 8,900 -1,742 Descending Minneapolis Center
Sun 05:46:18 PM 46.3592 -93.7892 357° North 302 348 6,800 -1,452 Descending Minneapolis Center
Sun 05:47:20 PM 46.4422 -93.8017 354° North 300 345 5,900 -823 Descending Minneapolis Center
Sun 05:48:22 PM 46.5103 -93.8550 332° Northwest 288 331 5,100 -968 Descending Minneapolis Center
Sun 05:49:24 PM 46.4947 -93.9514 257° West 276 318 3,900 -1,065 Descending Minneapolis Center
Sun 05:50:26 PM 46.4561 -94.0256 233° Southwest 249 287 2,900 -968 Descending Minneapolis Center
Sun 05:52:00 PM 46.4000 -94.1333 325° Northwest  Level FlightAware Approximate
Sun 05:59:00 PM 46.4042 -94.1338 325° Northwest  Level Estimated

Login

Don't have an account? Register now (free) for customized features, flight alerts, and more!